Time;durP1;ratioP1;P1;durP2;ratioP2;P2;SDS_P1;SDS_P2;PMS_P1;PMS_P2;Temp;Humidity;BMP_temperature;BMP_pressure;BME280_temperature;BME280_humidity;BME280_pressure;Samples;Min_cycle;Max_cycle;Signal;HPM_P1;HPM_P2
2023/08/13 00:01:07;;;;;;;11.70;3.13;;;;;;;;;;5050458;28;20263;-81
2023/08/13 00:03:33;;;;;;;9.23;3.47;;;;;;;;;;5036045;28;20207;-81
2023/08/13 00:05:59;;;;;;;8.00;2.73;;;;;;;;;;5047974;28;20176;-81
2023/08/13 00:08:25;;;;;;;9.57;3.40;;;;;;;;;;5056683;28;20179;-82
2023/08/13 00:10:51;;;;;;;12.73;3.57;;;;;;;;;;5059372;28;20237;-81
2023/08/13 00:13:17;;;;;;;15.03;3.93;;;;;;;;;;5036786;28;20200;-81
2023/08/13 00:15:43;;;;;;;12.20;3.17;;;;;;;;;;5042031;28;20275;-80
2023/08/13 00:18:10;;;;;;;11.40;3.23;;;;;;;;;;5036262;28;20188;-81
2023/08/13 00:20:36;;;;;;;9.70;3.20;;;;;;;;;;5035771;28;20180;-81
2023/08/13 00:23:03;;;;;;;8.80;2.87;;;;;;;;;;5036675;28;20228;-81
2023/08/13 00:25:29;;;;;;;11.10;3.10;;;;;;;;;;5036068;28;20180;-81
2023/08/13 00:27:55;;;;;;;7.63;3.07;;;;;;;;;;5036586;28;20182;-81
2023/08/13 00:30:21;;;;;;;8.63;3.10;;;;;;;;;;5036290;28;20168;-81
2023/08/13 00:32:47;;;;;;;10.57;3.37;;;;;;;;;;5035815;28;20184;-81
2023/08/13 00:35:13;;;;;;;9.33;3.33;;;;;;;;;;5036288;28;20202;-81
2023/08/13 00:37:39;;;;;;;9.97;3.20;;;;;;;;;;5035677;28;20208;-81
2023/08/13 00:40:05;;;;;;;8.50;3.20;;;;;;;;;;5036328;28;20187;-81
2023/08/13 00:42:31;;;;;;;8.77;3.20;;;;;;;;;;5036306;28;20208;-80
2023/08/13 00:44:57;;;;;;;9.50;3.30;;;;;;;;;;5036065;28;20315;-81
2023/08/13 00:47:27;;;;;;;8.87;3.27;;;;;;;;;;5035979;28;20211;-81
2023/08/13 00:49:53;;;;;;;10.23;3.03;;;;;;;;;;5035940;28;20180;-80
2023/08/13 00:52:19;;;;;;;11.00;3.50;;;;;;;;;;5052561;28;20180;-80
2023/08/13 00:54:45;;;;;;;9.53;3.33;;;;;;;;;;5035747;28;20183;-81
2023/08/13 00:57:11;;;;;;;9.70;3.10;;;;;;;;;;5035780;28;20184;-80
2023/08/13 00:59:37;;;;;;;6.83;2.83;;;;;;;;;;5037366;28;20251;-80
2023/08/13 01:02:03;;;;;;;12.10;3.50;;;;;;;;;;5042997;28;20211;-80
2023/08/13 01:04:29;;;;;;;11.23;3.30;;;;;;;;;;5034821;28;20184;-80
2023/08/13 01:06:56;;;;;;;8.13;3.33;;;;;;;;;;5034986;28;20226;-81
2023/08/13 01:09:28;;;;;;;7.83;3.40;;;;;;;;;;5035079;28;20175;-81
2023/08/13 01:12:08;;;;;;;9.60;3.20;;;;;;;;;;5033147;28;20172;-81
2023/08/13 01:14:39;;;;;;;10.60;4.07;;;;;;;;;;5014049;28;20207;-80
2023/08/13 01:17:06;;;;;;;9.43;3.30;;;;;;;;;;5047838;28;20180;-80
2023/08/13 01:19:32;;;;;;;9.57;3.30;;;;;;;;;;5035116;28;20183;-80
2023/08/13 01:21:58;;;;;;;15.40;3.77;;;;;;;;;;5032148;28;20212;-81
2023/08/13 01:24:24;;;;;;;11.67;3.87;;;;;;;;;;5034812;28;20176;-80
2023/08/13 01:27:02;;;;;;;11.90;3.83;;;;;;;;;;5052769;28;20175;-80
2023/08/13 01:29:43;;;;;;;10.73;3.80;;;;;;;;;;5048668;28;20187;-80
2023/08/13 01:32:12;;;;;;;11.30;3.70;;;;;;;;;;5042603;28;20188;-80
2023/08/13 01:34:38;;;;;;;8.97;3.57;;;;;;;;;;5029123;28;20187;-81
2023/08/13 01:37:05;;;;;;;12.43;3.83;;;;;;;;;;5035732;28;20215;-81
2023/08/13 01:39:32;;;;;;;10.93;3.90;;;;;;;;;;5029505;28;20198;-80
2023/08/13 01:41:58;;;;;;;8.70;3.63;;;;;;;;;;5055640;28;20214;-81
2023/08/13 01:44:24;;;;;;;8.73;3.40;;;;;;;;;;5054508;28;20263;-80
2023/08/13 01:46:50;;;;;;;10.43;3.87;;;;;;;;;;5039151;28;20176;-80
2023/08/13 01:49:16;;;;;;;9.47;3.33;;;;;;;;;;5038710;28;20208;-80
2023/08/13 01:51:44;;;;;;;11.30;4.00;;;;;;;;;;5055826;28;20184;-80
2023/08/13 01:54:10;;;;;;;11.50;3.20;;;;;;;;;;5037942;28;20263;-80
2023/08/13 01:56:36;;;;;;;10.60;3.37;;;;;;;;;;5039051;28;20274;-81
2023/08/13 01:59:02;;;;;;;10.77;3.40;;;;;;;;;;5039802;28;20180;-81
2023/08/13 02:01:28;;;;;;;11.97;3.10;;;;;;;;;;5055109;28;20180;-80
2023/08/13 02:03:55;;;;;;;12.87;3.40;;;;;;;;;;5038198;28;20230;-80
2023/08/13 02:06:21;;;;;;;11.70;3.88;;;;;;;;;;5044579;28;20443;-81
2023/08/13 02:08:47;;;;;;;13.87;4.17;;;;;;;;;;5036630;28;20175;-80
2023/08/13 02:11:13;;;;;;;10.90;3.40;;;;;;;;;;5021500;28;20180;-80
2023/08/13 02:13:39;;;;;;;11.17;3.37;;;;;;;;;;5037853;28;20184;-81
2023/08/13 02:16:05;;;;;;;8.60;3.37;;;;;;;;;;5054384;28;20188;-81
2023/08/13 02:18:31;;;;;;;12.43;3.13;;;;;;;;;;5016441;28;20184;-81
2023/08/13 02:20:57;;;;;;;12.57;3.33;;;;;;;;;;5038048;28;20207;-81
2023/08/13 02:23:23;;;;;;;12.40;3.43;;;;;;;;;;5016908;28;20227;-81
2023/08/13 02:25:50;;;;;;;10.17;3.40;;;;;;;;;;5038151;28;20180;-80
2023/08/13 02:28:16;;;;;;;12.50;3.40;;;;;;;;;;5054293;28;20180;-80
2023/08/13 02:30:42;;;;;;;8.43;3.13;;;;;;;;;;5054906;28;20176;-87
2023/08/13 02:33:08;;;;;;;10.90;3.17;;;;;;;;;;5048937;28;20188;-87
2023/08/13 02:35:34;;;;;;;11.73;3.53;;;;;;;;;;5037344;28;20188;-87
2023/08/13 02:38:00;;;;;;;10.60;3.60;;;;;;;;;;5013495;28;20181;-87
2023/08/13 02:40:26;;;;;;;9.37;3.60;;;;;;;;;;5054013;28;20263;-87
2023/08/13 02:42:52;;;;;;;9.50;3.40;;;;;;;;;;5016498;28;20248;-87
2023/08/13 02:45:18;;;;;;;12.00;3.13;;;;;;;;;;5050755;28;20203;-87
2023/08/13 02:47:44;;;;;;;11.00;3.40;;;;;;;;;;5042736;28;20282;-87
2023/08/13 02:50:10;;;;;;;12.07;3.70;;;;;;;;;;5043535;28;20184;-87
2023/08/13 02:52:36;;;;;;;11.07;3.50;;;;;;;;;;5037895;28;20184;-87
2023/08/13 02:55:02;;;;;;;8.03;3.13;;;;;;;;;;5053015;28;20184;-87
2023/08/13 02:57:28;;;;;;;12.93;3.83;;;;;;;;;;5053224;28;20270;-87
2023/08/13 02:59:54;;;;;;;12.10;3.03;;;;;;;;;;5048879;28;20311;-87
2023/08/13 03:02:20;;;;;;;10.20;3.30;;;;;;;;;;5037427;28;20272;-87
2023/08/13 03:04:46;;;;;;;11.27;3.40;;;;;;;;;;5022695;28;20192;-87
2023/08/13 03:07:12;;;;;;;8.97;3.33;;;;;;;;;;5029185;28;20180;-88
2023/08/13 03:09:38;;;;;;;11.17;3.73;;;;;;;;;;5038765;28;20193;-87
2023/08/13 03:12:05;;;;;;;12.10;3.70;;;;;;;;;;5033841;28;20185;-87
2023/08/13 03:14:31;;;;;;;12.90;3.90;;;;;;;;;;5018115;28;20265;-87
2023/08/13 03:16:57;;;;;;;10.23;3.33;;;;;;;;;;5021516;28;20186;-87
2023/08/13 03:19:23;;;;;;;13.27;3.93;;;;;;;;;;5017475;28;20188;-87
2023/08/13 03:21:49;;;;;;;9.73;3.80;;;;;;;;;;5023517;28;20243;-87
2023/08/13 03:24:16;;;;;;;15.67;3.70;;;;;;;;;;5027507;28;20184;-87
2023/08/13 03:26:44;;;;;;;12.00;3.77;;;;;;;;;;5025465;28;20192;-87
2023/08/13 03:29:10;;;;;;;11.83;3.80;;;;;;;;;;5057015;28;20237;-87
2023/08/13 03:31:36;;;;;;;12.53;4.03;;;;;;;;;;5040572;28;20418;-87
2023/08/13 03:34:02;;;;;;;12.57;3.67;;;;;;;;;;5039441;28;20413;-88
2023/08/13 03:36:28;;;;;;;10.60;3.43;;;;;;;;;;5017465;28;20208;-87
2023/08/13 03:38:54;;;;;;;11.23;3.77;;;;;;;;;;5035749;28;20176;-87
2023/08/13 03:41:20;;;;;;;12.80;3.87;;;;;;;;;;5019669;28;20195;-88
2023/08/13 03:43:46;;;;;;;14.17;3.70;;;;;;;;;;5050879;28;20215;-87
2023/08/13 03:46:12;;;;;;;12.70;3.80;;;;;;;;;;5017297;28;20181;-88
2023/08/13 03:48:38;;;;;;;11.50;3.60;;;;;;;;;;5048006;28;20191;-88
2023/08/13 03:51:05;;;;;;;13.33;3.90;;;;;;;;;;5027907;28;20180;-88
2023/08/13 03:53:31;;;;;;;12.50;3.87;;;;;;;;;;5044087;28;20226;-88
2023/08/13 03:55:59;;;;;;;11.57;4.20;;;;;;;;;;5021408;28;20185;-88
2023/08/13 03:58:25;;;;;;;13.53;3.87;;;;;;;;;;5040608;28;20184;-87
2023/08/13 04:00:51;;;;;;;13.00;4.00;;;;;;;;;;5026949;28;20220;-87
2023/08/13 04:03:17;;;;;;;10.67;3.80;;;;;;;;;;5050910;28;20212;-87
2023/08/13 04:05:43;;;;;;;12.63;3.80;;;;;;;;;;5010390;28;20247;-87
2023/08/13 04:08:09;;;;;;;10.23;3.90;;;;;;;;;;5020173;28;20202;-87
2023/08/13 04:10:35;;;;;;;13.77;3.73;;;;;;;;;;5016845;28;20180;-87
2023/08/13 04:13:01;;;;;;;12.47;3.70;;;;;;;;;;5036274;28;20345;-87
2023/08/13 04:15:28;;;;;;;18.93;4.20;;;;;;;;;;5017191;28;20228;-87
2023/08/13 04:17:54;;;;;;;9.97;3.70;;;;;;;;;;5033505;28;20324;-87
2023/08/13 04:20:20;;;;;;;11.87;3.50;;;;;;;;;;5029619;28;20222;-88
2023/08/13 04:22:46;;;;;;;13.27;4.03;;;;;;;;;;5035573;28;20233;-88
2023/08/13 04:25:15;;;;;;;8.30;3.13;;;;;;;;;;5008716;28;20271;-87
2023/08/13 04:27:41;;;;;;;9.93;3.40;;;;;;;;;;5011015;28;20184;-87
2023/08/13 04:30:07;;;;;;;14.33;3.40;;;;;;;;;;5025151;28;20275;-88
2023/08/13 04:32:36;;;;;;;13.73;3.60;;;;;;;;;;5036110;28;20184;-87
2023/08/13 04:35:02;;;;;;;8.63;3.53;;;;;;;;;;5035943;28;20800;-87
2023/08/13 04:37:28;;;;;;;10.87;3.47;;;;;;;;;;5016687;28;20299;-87
2023/08/13 04:39:57;;;;;;;13.77;3.47;;;;;;;;;;5069442;28;20270;-87
2023/08/13 04:42:23;;;;;;;11.67;3.60;;;;;;;;;;5032151;28;20208;-88
2023/08/13 04:44:49;;;;;;;13.33;3.53;;;;;;;;;;5018965;28;20245;-88
2023/08/13 04:47:15;;;;;;;10.37;3.30;;;;;;;;;;5016443;28;20246;-87
2023/08/13 04:49:41;;;;;;;15.93;3.80;;;;;;;;;;5015752;28;20177;-87
2023/08/13 04:52:07;;;;;;;12.95;3.60;;;;;;;;;;5022952;28;20428;-87
2023/08/13 04:54:33;;;;;;;13.37;3.67;;;;;;;;;;5029310;28;20190;-88
2023/08/13 04:56:59;;;;;;;9.27;3.20;;;;;;;;;;5021107;28;20185;-87
2023/08/13 04:59:25;;;;;;;9.87;3.33;;;;;;;;;;5020749;28;20226;-87
2023/08/13 05:01:51;;;;;;;10.23;3.53;;;;;;;;;;5034242;28;20275;-87
2023/08/13 05:04:17;;;;;;;13.60;3.57;;;;;;;;;;5055384;28;20179;-87
2023/08/13 05:06:43;;;;;;;9.70;3.23;;;;;;;;;;5035254;28;20191;-88
2023/08/13 05:09:09;;;;;;;16.10;3.80;;;;;;;;;;5071611;28;20183;-88
2023/08/13 05:11:38;;;;;;;11.30;3.67;;;;;;;;;;5086281;28;20175;-88
2023/08/13 05:14:04;;;;;;;12.60;3.60;;;;;;;;;;5069043;28;20186;-87
2023/08/13 05:16:31;;;;;;;10.50;3.60;;;;;;;;;;5054161;28;20188;-88
2023/08/13 05:18:57;;;;;;;11.80;3.73;;;;;;;;;;5043560;28;20183;-87
2023/08/13 05:21:23;;;;;;;13.13;3.77;;;;;;;;;;5044917;28;20238;-87
2023/08/13 05:23:49;;;;;;;14.23;4.07;;;;;;;;;;5055399;28;20221;-88
2023/08/13 05:26:15;;;;;;;10.90;3.30;;;;;;;;;;5032659;28;20183;-88
2023/08/13 05:28:41;;;;;;;11.67;4.10;;;;;;;;;;5054780;28;20176;-88
2023/08/13 05:31:10;;;;;;;12.40;4.10;;;;;;;;;;5055136;28;20175;-88
2023/08/13 05:33:36;;;;;;;11.97;4.20;;;;;;;;;;5055302;28;20184;-87
2023/08/13 05:36:02;;;;;;;12.03;4.20;;;;;;;;;;5052118;28;20204;-88
2023/08/13 05:38:28;;;;;;;12.77;4.73;;;;;;;;;;5039162;28;20179;-87
2023/08/13 05:40:54;;;;;;;9.63;3.63;;;;;;;;;;5038503;28;20188;-88
2023/08/13 05:43:20;;;;;;;11.93;4.20;;;;;;;;;;5054493;28;20218;-88
2023/08/13 05:45:46;;;;;;;14.57;4.37;;;;;;;;;;5032489;28;20185;-88
2023/08/13 05:48:12;;;;;;;11.17;4.00;;;;;;;;;;5048495;28;20185;-88
2023/08/13 05:50:38;;;;;;;12.10;4.73;;;;;;;;;;5051739;28;20195;-88
2023/08/13 05:53:05;;;;;;;14.83;4.50;;;;;;;;;;5032113;28;20195;-88
2023/08/13 05:55:31;;;;;;;17.17;4.47;;;;;;;;;;5024822;28;20192;-88
2023/08/13 05:57:57;;;;;;;13.10;4.50;;;;;;;;;;5035929;28;20183;-88
2023/08/13 06:00:24;;;;;;;13.90;4.50;;;;;;;;;;5049601;28;20244;-88
2023/08/13 06:02:50;;;;;;;14.83;4.40;;;;;;;;;;5045639;28;20295;-88
2023/08/13 06:05:16;;;;;;;13.80;4.73;;;;;;;;;;5044010;28;20207;-88
2023/08/13 06:07:43;;;;;;;10.10;4.17;;;;;;;;;;5034808;28;20233;-87
2023/08/13 06:10:11;;;;;;;16.13;4.37;;;;;;;;;;5069498;28;20180;-87
2023/08/13 06:12:37;;;;;;;12.43;4.43;;;;;;;;;;5070760;28;20176;-88
2023/08/13 06:15:04;;;;;;;14.90;4.10;;;;;;;;;;5033706;28;20179;-88
2023/08/13 06:17:30;;;;;;;11.37;4.57;;;;;;;;;;5050048;28;20180;-88
2023/08/13 06:19:57;;;;;;;9.03;4.30;;;;;;;;;;5065912;28;20232;-88
2023/08/13 06:22:23;;;;;;;13.90;4.47;;;;;;;;;;5037539;28;20195;-87
2023/08/13 06:24:49;;;;;;;11.97;4.20;;;;;;;;;;5034181;28;20430;-88
2023/08/13 06:27:15;;;;;;;10.73;4.07;;;;;;;;;;5042284;28;20176;-88
2023/08/13 06:29:41;;;;;;;11.90;4.30;;;;;;;;;;5059351;28;20233;-87
2023/08/13 06:32:07;;;;;;;12.17;4.60;;;;;;;;;;5041978;28;20180;-87
2023/08/13 06:34:34;;;;;;;15.20;4.43;;;;;;;;;;5036779;28;20180;-87
2023/08/13 06:37:00;;;;;;;12.87;4.17;;;;;;;;;;5040083;28;20196;-88
2023/08/13 06:39:26;;;;;;;13.23;3.90;;;;;;;;;;5036249;28;20175;-88
2023/08/13 06:41:52;;;;;;;11.53;3.83;;;;;;;;;;5039335;28;20271;-88
2023/08/13 06:44:19;;;;;;;14.40;4.00;;;;;;;;;;5029680;28;20184;-87
2023/08/13 06:46:46;;;;;;;14.47;4.33;;;;;;;;;;5071831;28;20194;-86
2023/08/13 06:49:12;;;;;;;12.37;4.00;;;;;;;;;;5058160;28;20202;-85
2023/08/13 06:51:38;;;;;;;15.30;4.63;;;;;;;;;;5041340;28;20175;-87
2023/08/13 06:54:05;;;;;;;11.57;4.30;;;;;;;;;;5041048;28;20194;-86
2023/08/13 06:56:33;;;;;;;10.07;3.93;;;;;;;;;;5041563;28;20196;-86
2023/08/13 06:58:59;;;;;;;11.53;3.90;;;;;;;;;;5042159;28;20188;-85
2023/08/13 07:01:25;;;;;;;12.93;3.90;;;;;;;;;;5058154;28;20249;-87
2023/08/13 07:03:51;;;;;;;13.13;4.07;;;;;;;;;;5058063;28;20215;-85
2023/08/13 07:06:17;;;;;;;14.07;4.10;;;;;;;;;;5058274;28;20172;-86
2023/08/13 07:08:43;;;;;;;15.00;3.87;;;;;;;;;;5050794;28;20183;-86
2023/08/13 07:11:10;;;;;;;9.03;3.67;;;;;;;;;;5066299;28;20238;-86
2023/08/13 07:13:36;;;;;;;16.50;3.63;;;;;;;;;;5070300;28;20184;-86
2023/08/13 07:16:02;;;;;;;11.97;4.10;;;;;;;;;;5043039;28;20190;-85
2023/08/13 07:18:28;;;;;;;11.70;3.63;;;;;;;;;;5034334;28;20266;-86
2023/08/13 07:20:54;;;;;;;10.43;3.90;;;;;;;;;;5038327;28;20182;-85
2023/08/13 07:23:20;;;;;;;10.37;3.77;;;;;;;;;;5057627;28;20302;-86
2023/08/13 07:25:46;;;;;;;13.70;3.90;;;;;;;;;;5058323;28;20179;-86
2023/08/13 07:28:13;;;;;;;10.50;3.57;;;;;;;;;;5054895;28;20188;-86
2023/08/13 07:30:39;;;;;;;9.73;3.63;;;;;;;;;;5036123;28;20291;-86
2023/08/13 07:33:05;;;;;;;10.10;3.70;;;;;;;;;;5073162;28;20180;-86
2023/08/13 07:35:31;;;;;;;10.40;3.70;;;;;;;;;;5051829;28;20188;-87
2023/08/13 07:37:57;;;;;;;11.57;3.33;;;;;;;;;;5053994;28;20201;-87
2023/08/13 07:40:24;;;;;;;15.23;3.53;;;;;;;;;;5054305;28;20184;-85
2023/08/13 07:42:50;;;;;;;13.20;3.40;;;;;;;;;;5056304;28;20222;-86
2023/08/13 07:45:16;;;;;;;10.23;3.37;;;;;;;;;;5073749;28;20183;-87
2023/08/13 07:47:44;;;;;;;11.52;3.63;;;;;;;;;;5073678;28;20406;-87
2023/08/13 07:50:10;;;;;;;12.38;3.63;;;;;;;;;;5072207;28;20418;-87
2023/08/13 07:52:36;;;;;;;11.03;3.50;;;;;;;;;;5072748;28;20473;-88
2023/08/13 07:55:03;;;;;;;9.63;3.00;;;;;;;;;;5065573;28;20499;-86
2023/08/13 07:57:29;;;;;;;8.73;3.15;;;;;;;;;;5046957;28;20426;-87
2023/08/13 07:59:55;;;;;;;10.50;3.33;;;;;;;;;;5061443;28;20517;-87
2023/08/13 08:02:21;;;;;;;10.95;3.65;;;;;;;;;;5037905;28;20437;-86
2023/08/13 08:04:47;;;;;;;11.52;3.65;;;;;;;;;;5052718;28;20434;-87
2023/08/13 08:07:13;;;;;;;10.52;3.40;;;;;;;;;;5039934;28;20412;-87
2023/08/13 08:09:39;;;;;;;10.07;3.38;;;;;;;;;;5072567;28;20402;-87
2023/08/13 08:12:06;;;;;;;9.05;3.53;;;;;;;;;;5039519;28;20478;-87
2023/08/13 08:14:32;;;;;;;9.00;3.03;;;;;;;;;;5032702;28;20429;-87
2023/08/13 08:17:04;;;;;;;10.20;3.45;;;;;;;;;;5085079;28;20415;-87
2023/08/13 08:19:30;;;;;;;12.02;3.35;;;;;;;;;;5036292;28;20411;-87
2023/08/13 08:21:58;;;;;;;10.77;3.30;;;;;;;;;;5052298;28;20521;-87
2023/08/13 08:24:24;;;;;;;8.32;3.30;;;;;;;;;;5065799;28;20404;-88
2023/08/13 08:26:50;;;;;;;10.73;3.28;;;;;;;;;;5050577;28;20410;-89
2023/08/13 08:29:16;;;;;;;11.10;3.50;;;;;;;;;;5043290;28;20410;-87
2023/08/13 08:31:44;;;;;;;11.55;3.35;;;;;;;;;;5029364;28;20429;-87
2023/08/13 08:34:10;;;;;;;9.83;3.20;;;;;;;;;;5067166;28;20410;-87
2023/08/13 08:36:36;;;;;;;11.90;3.70;;;;;;;;;;5035035;28;20419;-87
2023/08/13 08:39:03;;;;;;;9.20;3.13;;;;;;;;;;5054825;28;20407;-87
2023/08/13 08:41:31;;;;;;;12.23;3.40;;;;;;;;;;5071309;28;20402;-86
2023/08/13 08:43:59;;;;;;;10.20;3.25;;;;;;;;;;5070907;28;20422;-86
2023/08/13 08:46:27;;;;;;;10.30;3.28;;;;;;;;;;5048535;28;20416;-87
2023/08/13 08:48:54;;;;;;;11.13;3.30;;;;;;;;;;5051519;28;20395;-86
2023/08/13 08:51:23;;;;;;;9.30;3.10;;;;;;;;;;5071356;28;20418;-87
2023/08/13 08:53:50;;;;;;;9.63;3.60;;;;;;;;;;5071054;28;20418;-87
2023/08/13 08:56:16;;;;;;;10.00;3.05;;;;;;;;;;5052646;28;20430;-87
2023/08/13 08:58:42;;;;;;;12.63;3.13;;;;;;;;;;5037283;28;20436;-88
2023/08/13 09:01:08;;;;;;;9.48;3.17;;;;;;;;;;5055224;28;20524;-87
2023/08/13 09:03:34;;;;;;;9.57;2.97;;;;;;;;;;5039221;28;20438;-88
2023/08/13 09:06:00;;;;;;;11.63;3.50;;;;;;;;;;5039100;28;20445;-87
2023/08/13 09:08:26;;;;;;;8.52;3.20;;;;;;;;;;5038497;28;20414;-86
2023/08/13 09:10:53;;;;;;;10.30;3.20;;;;;;;;;;5038952;28;20403;-87
2023/08/13 09:13:22;;;;;;;15.93;3.60;;;;;;;;;;5038607;28;20406;-87
2023/08/13 09:15:48;;;;;;;10.07;3.10;;;;;;;;;;5039724;28;20504;-87
2023/08/13 09:18:14;;;;;;;12.00;3.55;;;;;;;;;;5055067;28;20414;-87
2023/08/13 09:20:44;;;;;;;10.13;2.95;;;;;;;;;;5055210;28;20417;-88
2023/08/13 09:23:10;;;;;;;9.23;3.50;;;;;;;;;;5055496;28;20434;-88
2023/08/13 09:25:37;;;;;;;10.45;3.38;;;;;;;;;;5051947;28;20403;-87
2023/08/13 09:28:03;;;;;;;9.55;3.42;;;;;;;;;;5055494;28;20428;-88
2023/08/13 09:30:32;;;;;;;10.60;3.53;;;;;;;;;;5051891;28;20426;-88
2023/08/13 09:33:02;;;;;;;10.55;3.30;;;;;;;;;;5054090;28;20520;-88
2023/08/13 09:35:29;;;;;;;10.95;3.13;;;;;;;;;;5055080;28;20434;-88
2023/08/13 09:37:55;;;;;;;9.98;3.10;;;;;;;;;;5054948;28;20398;-88
2023/08/13 09:40:21;;;;;;;10.75;3.25;;;;;;;;;;5035304;28;20420;-85
2023/08/13 09:42:47;;;;;;;12.95;3.08;;;;;;;;;;5049617;28;20444;-88
2023/08/13 09:45:14;;;;;;;13.20;3.03;;;;;;;;;;5051589;28;20420;-85
2023/08/13 09:47:41;;;;;;;9.77;3.22;;;;;;;;;;5054803;28;20410;-88
2023/08/13 09:50:08;;;;;;;10.60;3.23;;;;;;;;;;5055859;28;20402;-87
2023/08/13 09:52:37;;;;;;;9.38;3.05;;;;;;;;;;5056678;28;20406;-86
2023/08/13 09:55:21;;;;;;;9.70;2.92;;;;;;;;;;5042342;28;20417;-87
2023/08/13 09:57:48;;;;;;;8.50;3.05;;;;;;;;;;5058630;28;20438;-87
2023/08/13 10:00:15;;;;;;;9.80;3.08;;;;;;;;;;5058656;28;20420;-88
2023/08/13 10:02:43;;;;;;;8.27;3.22;;;;;;;;;;5028800;28;20441;-86
2023/08/13 10:05:09;;;;;;;12.67;3.17;;;;;;;;;;5038796;28;20408;-87
2023/08/13 10:07:36;;;;;;;9.98;2.92;;;;;;;;;;5055188;28;20408;-86
2023/08/13 10:10:03;;;;;;;9.65;3.13;;;;;;;;;;5058164;28;20471;-86
2023/08/13 10:12:30;;;;;;;9.13;2.90;;;;;;;;;;5058350;28;20395;-88
2023/08/13 10:14:56;;;;;;;9.27;2.95;;;;;;;;;;5058285;28;20418;-87
2023/08/13 10:17:26;;;;;;;9.23;3.10;;;;;;;;;;5058479;28;20425;-86
2023/08/13 10:19:54;;;;;;;10.60;3.20;;;;;;;;;;5058394;28;20411;-88
2023/08/13 10:22:46;;;;;;;9.20;3.07;;;;;;;;;;5047930;28;20424;-90
2023/08/13 10:25:25;;;;;;;9.43;2.70;;;;;;;;;;5044347;28;20457;-89
2023/08/13 10:27:53;;;;;;;9.65;2.90;;;;;;;;;;5038257;28;20404;-90
2023/08/13 10:30:19;;;;;;;8.60;3.20;;;;;;;;;;5038622;28;20408;-89
2023/08/13 10:32:52;;;;;;;8.23;2.93;;;;;;;;;;5038480;28;20407;-89
2023/08/13 10:35:25;;;;;;;10.60;3.40;;;;;;;;;;5034853;28;20441;-89
2023/08/13 10:37:59;;;;;;;10.47;2.87;;;;;;;;;;5037435;28;20407;-89
2023/08/13 10:40:25;;;;;;;9.02;2.80;;;;;;;;;;5038339;28;20444;-89
2023/08/13 10:42:58;;;;;;;9.52;3.03;;;;;;;;;;5035960;28;20557;-90
2023/08/13 10:45:25;;;;;;;8.75;2.88;;;;;;;;;;5037492;28;20491;-89
2023/08/13 10:47:51;;;;;;;7.57;3.00;;;;;;;;;;5037935;28;20396;-89
2023/08/13 10:50:30;;;;;;;9.25;3.10;;;;;;;;;;5034981;28;20424;-90
2023/08/13 10:53:12;;;;;;;8.75;3.20;;;;;;;;;;5037948;28;20469;-89
2023/08/13 10:55:54;;;;;;;8.35;2.75;;;;;;;;;;5021797;28;20415;-89
2023/08/13 10:58:24;;;;;;;8.63;3.08;;;;;;;;;;5047711;28;20533;-89
2023/08/13 11:00:57;;;;;;;9.50;3.00;;;;;;;;;;5040278;28;20471;-89
2023/08/13 11:03:29;;;;;;;8.63;3.03;;;;;;;;;;5035161;28;20440;-91
2023/08/13 11:05:58;;;;;;;10.00;2.90;;;;;;;;;;5036931;28;20424;-88
2023/08/13 11:08:27;;;;;;;11.30;3.10;;;;;;;;;;5037070;28;20403;-87
2023/08/13 11:10:54;;;;;;;8.57;2.90;;;;;;;;;;5037464;28;20416;-87
2023/08/13 11:13:21;;;;;;;7.10;3.00;;;;;;;;;;5036994;28;20420;-89
2023/08/13 11:15:54;;;;;;;9.82;2.88;;;;;;;;;;5037112;28;20422;-88
2023/08/13 11:18:20;;;;;;;8.25;2.83;;;;;;;;;;5036942;28;20408;-90
2023/08/13 11:20:55;;;;;;;8.70;2.85;;;;;;;;;;5037173;28;20404;-90
2023/08/13 11:23:23;;;;;;;7.88;2.65;;;;;;;;;;5037265;28;20503;-88
2023/08/13 11:25:51;;;;;;;7.30;2.85;;;;;;;;;;5037108;28;20430;-86
2023/08/13 11:28:23;;;;;;;8.45;2.72;;;;;;;;;;5035458;28;20411;-87
2023/08/13 11:30:51;;;;;;;8.27;2.67;;;;;;;;;;5036632;28;20409;-88
2023/08/13 11:33:19;;;;;;;7.05;2.80;;;;;;;;;;5036714;28;20404;-88
2023/08/13 11:35:46;;;;;;;9.00;2.78;;;;;;;;;;5036415;28;20414;-88
2023/08/13 11:38:12;;;;;;;8.10;3.00;;;;;;;;;;5036548;28;20546;-87
2023/08/13 11:40:41;;;;;;;9.63;3.03;;;;;;;;;;5035638;28;20503;-88
2023/08/13 11:43:11;;;;;;;8.60;2.72;;;;;;;;;;5032250;28;20424;-88
2023/08/13 11:45:41;;;;;;;9.55;3.05;;;;;;;;;;5037090;28;20427;-87
2023/08/13 11:48:30;;;;;;;7.40;2.70;;;;;;;;;;5035066;28;20467;-87
2023/08/13 11:50:57;;;;;;;8.60;2.90;;;;;;;;;;5036393;28;20396;-87
2023/08/13 11:53:26;;;;;;;7.85;2.80;;;;;;;;;;5036923;28;20487;-87
2023/08/13 11:55:53;;;;;;;8.82;2.80;;;;;;;;;;5030161;28;20516;-87
2023/08/13 11:58:19;;;;;;;8.75;2.95;;;;;;;;;;5036046;28;20408;-88
2023/08/13 12:00:49;;;;;;;9.90;3.00;;;;;;;;;;5036917;28;20439;-88
2023/08/13 12:03:15;;;;;;;9.18;2.90;;;;;;;;;;5071747;28;20434;-88
2023/08/13 12:05:42;;;;;;;9.82;2.90;;;;;;;;;;5050265;28;20409;-87
2023/08/13 12:08:09;;;;;;;8.00;2.85;;;;;;;;;;5032774;28;20484;-87
2023/08/13 12:10:36;;;;;;;8.52;3.08;;;;;;;;;;5032980;28;20464;-87
2023/08/13 12:13:02;;;;;;;6.65;3.08;;;;;;;;;;5034336;28;20427;-88
2023/08/13 12:15:29;;;;;;;8.75;3.08;;;;;;;;;;5048477;28;20450;-87
2023/08/13 12:17:56;;;;;;;9.65;2.95;;;;;;;;;;5050589;28;20438;-89
2023/08/13 12:20:23;;;;;;;8.93;3.30;;;;;;;;;;5052076;28;20412;-87
2023/08/13 12:22:49;;;;;;;8.63;3.08;;;;;;;;;;5052198;28;20434;-89
2023/08/13 12:25:18;;;;;;;8.13;3.15;;;;;;;;;;5048396;28;20415;-87
2023/08/13 12:27:46;;;;;;;8.73;2.97;;;;;;;;;;5033883;28;20413;-88
2023/08/13 12:30:12;;;;;;;7.10;2.70;;;;;;;;;;5030607;28;20419;-87
2023/08/13 12:32:41;;;;;;;8.13;3.15;;;;;;;;;;5052637;28;20407;-88
2023/08/13 12:35:10;;;;;;;8.70;3.13;;;;;;;;;;5052030;28;20521;-87
2023/08/13 12:37:38;;;;;;;6.97;2.90;;;;;;;;;;5047605;28;20419;-87
2023/08/13 12:40:05;;;;;;;7.32;2.95;;;;;;;;;;5052043;28;20404;-88
2023/08/13 12:42:31;;;;;;;7.82;3.13;;;;;;;;;;5031372;28;20433;-86
2023/08/13 12:45:00;;;;;;;7.72;3.13;;;;;;;;;;5050540;28;20448;-89
2023/08/13 12:47:26;;;;;;;7.53;3.08;;;;;;;;;;5049438;28;20409;-89
2023/08/13 12:49:54;;;;;;;8.30;2.88;;;;;;;;;;5034274;28;20399;-89
2023/08/13 12:52:20;;;;;;;7.13;3.08;;;;;;;;;;5035248;28;20408;-89
2023/08/13 12:54:46;;;;;;;9.57;3.38;;;;;;;;;;5035609;28;20542;-88
2023/08/13 12:57:12;;;;;;;8.38;2.97;;;;;;;;;;5035380;28;20438;-88
2023/08/13 12:59:38;;;;;;;8.25;3.20;;;;;;;;;;5035442;28;20404;-89
2023/08/13 13:02:04;;;;;;;9.43;3.13;;;;;;;;;;5038719;28;20430;-89
2023/08/13 13:04:33;;;;;;;10.38;3.15;;;;;;;;;;5055055;28;20530;-88
2023/08/13 13:06:59;;;;;;;5.50;2.67;;;;;;;;;;5055158;28;20544;-89
2023/08/13 13:09:25;;;;;;;9.30;3.13;;;;;;;;;;5038483;28;20497;-89
2023/08/13 13:11:53;;;;;;;10.05;3.03;;;;;;;;;;5055206;28;20425;-88
2023/08/13 13:14:19;;;;;;;7.73;3.10;;;;;;;;;;5055223;28;20422;-89
2023/08/13 13:16:48;;;;;;;8.05;2.70;;;;;;;;;;5055196;28;20418;-89
2023/08/13 13:19:16;;;;;;;8.23;2.97;;;;;;;;;;5038843;28;20418;-88
2023/08/13 13:21:42;;;;;;;9.20;3.10;;;;;;;;;;5055199;28;20407;-89
2023/08/13 13:24:09;;;;;;;8.82;3.17;;;;;;;;;;5038736;28;20468;-89
2023/08/13 13:26:36;;;;;;;7.47;3.00;;;;;;;;;;5054920;28;20410;-89
2023/08/13 13:29:02;;;;;;;8.73;3.25;;;;;;;;;;5059044;28;20407;-88
2023/08/13 13:31:28;;;;;;;8.48;3.10;;;;;;;;;;5058897;28;20406;-89
2023/08/13 13:33:54;;;;;;;8.43;3.10;;;;;;;;;;5058878;28;20417;-89
2023/08/13 13:36:20;;;;;;;8.38;2.85;;;;;;;;;;5042127;28;20414;-89
2023/08/13 13:38:46;;;;;;;8.73;2.90;;;;;;;;;;5058952;28;20406;-88
2023/08/13 13:41:12;;;;;;;8.30;3.25;;;;;;;;;;5058903;28;20411;-88
2023/08/13 13:43:38;;;;;;;9.38;2.90;;;;;;;;;;5058598;28;20558;-88
2023/08/13 13:46:04;;;;;;;10.80;3.08;;;;;;;;;;5058597;28;20493;-88
2023/08/13 13:48:33;;;;;;;8.60;3.03;;;;;;;;;;5058755;28;20398;-88
2023/08/13 13:50:59;;;;;;;8.37;3.20;;;;;;;;;;5058573;28;20551;-88
2023/08/13 13:53:25;;;;;;;9.07;3.17;;;;;;;;;;5058715;28;20460;-89
2023/08/13 13:55:54;;;;;;;6.90;2.90;;;;;;;;;;5058891;28;20406;-89
2023/08/13 13:58:20;;;;;;;6.47;3.00;;;;;;;;;;5058466;28;20405;-88
2023/08/13 14:00:48;;;;;;;8.30;2.83;;;;;;;;;;5058699;28;20576;-88
2023/08/13 14:03:18;;;;;;;8.07;2.70;;;;;;;;;;5058187;28;20563;-88
2023/08/13 14:05:44;;;;;;;7.72;2.88;;;;;;;;;;5058345;28;20413;-89
2023/08/13 14:08:10;;;;;;;7.22;2.75;;;;;;;;;;5058580;28;20414;-89
2023/08/13 14:10:36;;;;;;;8.20;3.35;;;;;;;;;;5058122;28;20493;-88
2023/08/13 14:13:02;;;;;;;8.38;2.90;;;;;;;;;;5041819;28;20472;-88
2023/08/13 14:15:28;;;;;;;8.00;3.00;;;;;;;;;;5058215;28;20501;-88
2023/08/13 14:17:54;;;;;;;7.43;3.03;;;;;;;;;;5057981;28;20450;-88
2023/08/13 14:20:20;;;;;;;7.63;3.05;;;;;;;;;;5058123;28;20442;-89
2023/08/13 14:22:46;;;;;;;7.97;2.87;;;;;;;;;;5058263;28;20426;-88
2023/08/13 14:25:13;;;;;;;7.50;2.77;;;;;;;;;;5041402;28;20493;-88
2023/08/13 14:27:39;;;;;;;8.33;2.83;;;;;;;;;;5041455;28;20407;-88
2023/08/13 14:30:06;;;;;;;9.43;3.10;;;;;;;;;;5041644;28;20418;-88
2023/08/13 14:32:32;;;;;;;7.47;2.77;;;;;;;;;;5057664;28;20422;-88
2023/08/13 14:34:58;;;;;;;7.57;3.17;;;;;;;;;;5041511;28;20407;-88